Basinger, Florida
Current Conditions -  °F | °C
As of 4:53 PM on Tuesday 25 Nov 2014 (Local Time) from KVRB Reporting Station
Clear Clear  
Wind Chill: 78°   Ceiling: Unl
Heat Index: 80°   Visibility: 10mi
Dew Point: 72°   Wind: 14mph
Humidity: 81%   Direction: 140°SE
Pressure: 29.91"   Gusts: NA
Location:  27.4513°N, 80.9004°W
Report Text: KVRB 252153Z AUTO 14012KT 10SM CLR 26/22 A2991 RMK AO2 LTG DSNT W SLP126 T02560222
Loading
Personal Weather Stations






























Interactive Weather Map New forecast layout! Learn more

10-Day Weather Forecast

Advertisements
Track Severe Weather on mobile